Time,TemperatureF,DewpointF,PressureIn,WindDirection,WindDirectionDegrees,WindSpeedMPH,WindSpeedGustMPH,Humidity,HourlyPrecipIn,Conditions,Clouds,dailyrainin,SoftwareType,DateUTC
2013-06-17 00:00:00,71.8,69.7,29.78,NE,45,0.0,0.0,93,0.00,,SKC,0.00,VWS V14.01,2013-06-17 05:00:00,
2013-06-17 00:10:00,71.7,69.6,29.78,NE,45,0.0,1.0,93,0.00,,SKC,0.00,VWS V14.01,2013-06-17 05:10:00,
2013-06-17 00:20:00,71.6,69.5,29.78,NE,45,0.0,0.0,93,0.00,,SKC,0.00,VWS V14.01,2013-06-17 05:20:00,
2013-06-17 00:30:00,71.4,69.3,29.77,NE,45,0.0,0.0,93,0.00,,SKC,0.00,VWS V14.01,2013-06-17 05:30:00,
2013-06-17 00:40:00,71.3,69.2,29.78,NE,45,0.0,0.0,93,0.00,,SKC,0.00,VWS V14.01,2013-06-17 05:40:00,
2013-06-17 00:50:00,71.0,68.9,29.77,NE,45,0.0,0.0,93,0.00,,SKC,0.00,VWS V14.01,2013-06-17 05:50:00,
2013-06-17 01:00:00,70.7,68.6,29.77,NE,45,0.0,0.0,93,0.00,,SKC,0.00,VWS V14.01,2013-06-17 06:00:00,
2013-06-17 01:10:00,70.5,68.4,29.76,NE,45,0.0,0.0,93,0.00,,SKC,0.00,VWS V14.01,2013-06-17 06:10:00,
2013-06-17 01:20:00,70.3,68.5,29.75,NE,45,0.0,0.0,94,0.00,,SKC,0.00,VWS V14.01,2013-06-17 06:20:00,
2013-06-17 01:30:00,70.1,68.3,29.74,NE,45,0.0,0.0,94,0.00,,SKC,0.00,VWS V14.01,2013-06-17 06:30:00,
2013-06-17 01:40:00,70.0,68.5,29.73,NE,45,0.0,1.0,95,0.00,,SKC,0.00,VWS V14.01,2013-06-17 06:40:00,
2013-06-17 01:50:00,69.8,68.3,29.73,NE,45,0.0,1.0,95,0.00,,SKC,0.00,VWS V14.01,2013-06-17 06:50:00,
2013-06-17 02:00:00,69.7,68.2,29.73,NE,45,0.0,0.0,95,0.00,,SKC,0.00,VWS V14.01,2013-06-17 07:00:00,
2013-06-17 02:10:00,69.7,68.5,29.74,NE,45,0.0,0.0,96,0.00,,SKC,0.00,VWS V14.01,2013-06-17 07:10:00,
2013-06-17 02:20:00,69.7,68.5,29.75,NE,45,0.0,0.0,96,0.00,,SKC,0.00,VWS V14.01,2013-06-17 07:20:00,
2013-06-17 02:30:00,69.7,68.5,29.74,NE,45,0.0,1.0,96,0.00,,SKC,0.00,VWS V14.01,2013-06-17 07:30:00,
2013-06-17 02:40:00,69.6,68.4,29.73,NE,45,0.0,1.0,96,0.00,,SKC,0.00,VWS V14.01,2013-06-17 07:40:00,
2013-06-17 02:50:00,69.5,68.3,29.73,NE,45,0.0,0.0,96,0.00,,SKC,0.00,VWS V14.01,2013-06-17 07:50:00,
2013-06-17 03:00:00,69.6,68.4,29.73,NE,45,0.0,1.0,96,0.00,,SKC,0.00,VWS V14.01,2013-06-17 08:00:00,
2013-06-17 03:10:00,69.6,68.7,29.74,NE,45,0.0,0.0,97,0.00,,SKC,0.00,VWS V14.01,2013-06-17 08:10:00,
2013-06-17 03:20:00,69.7,68.8,29.73,NE,45,0.0,1.0,97,0.00,,SKC,0.00,VWS V14.01,2013-06-17 08:20:00,
2013-06-17 03:30:00,69.6,68.7,29.74,NE,45,0.0,0.0,97,0.00,,SKC,0.00,VWS V14.01,2013-06-17 08:30:00,
2013-06-17 03:40:00,69.5,68.6,29.74,NE,45,0.0,2.0,97,0.00,,SKC,0.00,VWS V14.01,2013-06-17 08:40:00,
2013-06-17 03:50:00,69.7,68.8,29.73,NE,45,0.0,1.0,97,0.00,,SKC,0.00,VWS V14.01,2013-06-17 08:50:00,
2013-06-17 04:00:00,69.8,68.9,29.73,NE,45,1.0,3.0,97,0.00,,SKC,0.00,VWS V14.01,2013-06-17 09:00:00,
2013-06-17 04:10:00,69.8,68.9,29.72,NE,45,0.0,2.0,97,0.00,,SKC,0.00,VWS V14.01,2013-06-17 09:10:00,
2013-06-17 04:20:00,69.7,68.8,29.73,NE,45,0.0,1.0,97,0.00,,SKC,0.00,VWS V14.01,2013-06-17 09:20:00,
2013-06-17 04:30:00,69.7,68.8,29.72,NE,45,0.0,2.0,97,0.00,,SKC,0.00,VWS V14.01,2013-06-17 09:30:00,
2013-06-17 04:40:00,69.6,68.7,29.72,NE,45,0.0,1.0,97,0.00,,SKC,0.00,VWS V14.01,2013-06-17 09:40:00,
2013-06-17 04:50:00,69.7,68.8,29.72,NE,45,0.0,4.0,97,0.00,,SKC,0.00,VWS V14.01,2013-06-17 09:50:00,
2013-06-17 05:00:00,69.9,69.0,29.73,NE,45,0.0,3.0,97,0.00,,SKC,0.00,VWS V14.01,2013-06-17 10:00:00,
2013-06-17 05:10:00,69.9,69.0,29.73,NE,45,0.0,2.0,97,0.00,,SKC,0.00,VWS V14.01,2013-06-17 10:10:00,
2013-06-17 05:20:00,69.9,69.0,29.73,NE,45,1.0,3.0,97,0.00,,SKC,0.00,VWS V14.01,2013-06-17 10:20:00,
2013-06-17 05:30:00,69.9,69.0,29.74,NE,45,0.0,3.0,97,0.00,,SKC,0.00,VWS V14.01,2013-06-17 10:30:00,
2013-06-17 05:40:00,69.8,68.9,29.75,NE,45,0.0,3.0,97,0.00,,SKC,0.00,VWS V14.01,2013-06-17 10:40:00,
2013-06-17 05:50:00,69.7,68.8,29.75,NE,45,0.0,3.0,97,0.00,,SKC,0.00,VWS V14.01,2013-06-17 10:50:00,
2013-06-17 06:00:00,69.7,68.8,29.75,NE,45,0.0,0.0,97,0.00,,SKC,0.00,VWS V14.01,2013-06-17 11:00:00,
2013-06-17 06:10:00,69.8,68.9,29.76,NE,45,0.0,0.0,97,0.00,,SKC,0.00,VWS V14.01,2013-06-17 11:10:00,
2013-06-17 06:20:00,69.9,69.0,29.76,NE,45,0.0,1.0,97,0.04,,SKC,0.04,VWS V14.01,2013-06-17 11:20:00,
2013-06-17 06:30:00,69.9,69.0,29.77,NE,45,0.0,0.0,97,0.26,,SKC,0.26,VWS V14.01,2013-06-17 11:30:00,
2013-06-17 06:40:00,69.7,68.8,29.78,NE,45,0.0,1.0,97,0.33,,SKC,0.33,VWS V14.01,2013-06-17 11:40:00,
2013-06-17 06:50:00,69.5,68.6,29.80,NE,45,0.0,2.0,97,0.34,,SKC,0.34,VWS V14.01,2013-06-17 11:50:00,
2013-06-17 07:00:00,69.4,68.5,29.81,ENE,68,1.0,5.0,97,0.46,,SKC,0.46,VWS V14.01,2013-06-17 12:00:00,
2013-06-17 07:10:00,69.1,68.2,29.80,ENE,68,0.0,7.0,97,0.53,,SKC,0.53,VWS V14.01,2013-06-17 12:10:00,
2013-06-17 07:20:00,68.5,67.3,29.77,SE,135,3.0,10.0,96,0.55,,SKC,0.55,VWS V14.01,2013-06-17 12:20:00,
2013-06-17 07:30:00,68.3,67.4,29.75,SSE,158,5.0,16.0,97,0.53,,SKC,0.57,VWS V14.01,2013-06-17 12:30:00,
2013-06-17 07:40:00,68.0,67.1,29.75,SSE,158,5.0,12.0,97,0.31,,SKC,0.57,VWS V14.01,2013-06-17 12:40:00,
2013-06-17 07:50:00,68.1,67.2,29.75,SSE,158,3.0,10.0,97,0.24,,SKC,0.57,VWS V14.01,2013-06-17 12:50:00,
2013-06-17 08:00:00,68.1,67.2,29.75,South,180,2.0,9.0,97,0.24,,SKC,0.58,VWS V14.01,2013-06-17 13:00:00,
2013-06-17 08:10:00,68.0,67.1,29.77,SSW,202,0.0,4.0,97,0.12,,SKC,0.58,VWS V14.01,2013-06-17 13:10:00,
2013-06-17 08:20:00,68.0,67.1,29.78,SSW,202,0.0,5.0,97,0.05,,SKC,0.58,VWS V14.01,2013-06-17 13:20:00,
2013-06-17 08:30:00,68.0,67.1,29.79,SSW,202,0.0,0.0,97,0.03,,SKC,0.58,VWS V14.01,2013-06-17 13:30:00,
2013-06-17 08:40:00,68.0,67.1,29.78,SSW,202,0.0,0.0,97,0.01,,SKC,0.58,VWS V14.01,2013-06-17 13:40:00,
2013-06-17 08:50:00,68.0,67.1,29.78,SSW,202,0.0,4.0,97,0.01,,SKC,0.58,VWS V14.01,2013-06-17 13:50:00,
2013-06-17 09:00:00,68.1,67.2,29.78,SSW,202,0.0,7.0,97,0.01,,SKC,0.58,VWS V14.01,2013-06-17 14:00:00,
2013-06-17 09:10:00,68.0,67.1,29.78,SW,225,1.0,5.0,97,0.00,,SKC,0.58,VWS V14.01,2013-06-17 14:10:00,
2013-06-17 09:20:00,67.9,67.0,29.79,SW,225,0.0,4.0,97,0.00,,SKC,0.58,VWS V14.01,2013-06-17 14:20:00,
2013-06-17 09:30:00,68.0,67.1,29.79,SW,225,0.0,1.0,97,0.00,,SKC,0.58,VWS V14.01,2013-06-17 14:30:00,
2013-06-17 09:40:00,68.1,67.2,29.80,SW,225,0.0,1.0,97,0.00,,SKC,0.58,VWS V14.01,2013-06-17 14:40:00,
2013-06-17 09:50:00,68.4,67.5,29.80,SW,225,0.0,4.0,97,0.00,,SKC,0.58,VWS V14.01,2013-06-17 14:50:00,
2013-06-17 10:00:00,68.6,68.0,29.81,SW,225,0.0,4.0,98,0.00,,SKC,0.58,VWS V14.01,2013-06-17 15:00:00,
2013-06-17 10:10:00,69.0,68.4,29.80,SW,225,0.0,4.0,98,0.00,,SKC,0.58,VWS V14.01,2013-06-17 15:10:00,
2013-06-17 10:20:00,69.3,68.7,29.81,SW,225,1.0,5.0,98,0.00,,SKC,0.58,VWS V14.01,2013-06-17 15:20:00,
2013-06-17 10:30:00,69.5,68.6,29.82,SW,225,1.0,5.0,97,0.00,,SKC,0.58,VWS V14.01,2013-06-17 15:30:00,
2013-06-17 10:40:00,69.6,68.7,29.82,SW,225,1.0,4.0,97,0.00,,SKC,0.58,VWS V14.01,2013-06-17 15:40:00,
2013-06-17 10:50:00,69.9,69.0,29.82,SW,225,0.0,4.0,97,0.00,,SKC,0.58,VWS V14.01,2013-06-17 15:50:00,
2013-06-17 11:00:00,70.3,69.4,29.82,SW,225,0.0,3.0,97,0.00,,SKC,0.58,VWS V14.01,2013-06-17 16:00:00,
2013-06-17 11:10:00,71.1,69.9,29.83,SW,225,0.0,3.0,96,0.00,,SKC,0.58,VWS V14.01,2013-06-17 16:10:00,
2013-06-17 11:20:00,71.3,69.5,29.83,WSW,248,2.0,6.0,94,0.00,,SKC,0.58,VWS V14.01,2013-06-17 16:20:00,
2013-06-17 11:30:00,71.7,69.3,29.83,WSW,248,2.0,5.0,92,0.00,,SKC,0.58,VWS V14.01,2013-06-17 16:30:00,
2013-06-17 11:40:00,72.6,69.8,29.83,WSW,248,0.0,4.0,91,0.00,,SKC,0.58,VWS V14.01,2013-06-17 16:40:00,
2013-06-17 11:50:00,73.0,68.9,29.83,West,270,1.0,5.0,87,0.00,,SKC,0.58,VWS V14.01,2013-06-17 16:50:00,
2013-06-17 12:00:00,73.3,69.5,29.83,West,270,1.0,5.0,88,0.00,,SKC,0.58,VWS V14.01,2013-06-17 17:00:00,
2013-06-17 12:10:00,73.6,69.8,29.83,West,270,1.0,6.0,88,0.00,,SKC,0.58,VWS V14.01,2013-06-17 17:10:00,
2013-06-17 12:20:00,74.0,69.9,29.83,West,270,1.0,5.0,87,0.00,,SKC,0.58,VWS V14.01,2013-06-17 17:20:00,
2013-06-17 12:30:00,74.6,70.8,29.83,West,270,0.0,4.0,88,0.00,,SKC,0.58,VWS V14.01,2013-06-17 17:30:00,
2013-06-17 12:40:00,74.6,70.5,29.84,West,270,0.0,3.0,87,0.03,,SKC,0.61,VWS V14.01,2013-06-17 17:40:00,
2013-06-17 12:50:00,73.8,69.3,29.85,West,270,0.0,3.0,86,0.14,,SKC,0.72,VWS V14.01,2013-06-17 17:50:00,
2013-06-17 13:00:00,72.8,69.0,29.85,West,270,0.0,2.0,88,0.16,,SKC,0.74,VWS V14.01,2013-06-17 18:00:00,
2013-06-17 13:10:00,71.8,68.7,29.84,West,270,0.0,3.0,90,0.23,,SKC,0.81,VWS V14.01,2013-06-17 18:10:00,
2013-06-17 13:20:00,71.1,68.3,29.83,West,270,0.0,3.0,91,0.24,,SKC,0.82,VWS V14.01,2013-06-17 18:20:00,
2013-06-17 13:30:00,70.5,68.1,29.83,West,270,0.0,3.0,92,0.24,,SKC,0.82,VWS V14.01,2013-06-17 18:30:00,
2013-06-17 13:40:00,70.7,68.9,29.83,West,270,0.0,1.0,94,0.24,,SKC,0.82,VWS V14.01,2013-06-17 18:40:00,
2013-06-17 13:50:00,71.6,70.4,29.82,West,270,0.0,1.0,96,0.21,,SKC,0.82,VWS V14.01,2013-06-17 18:50:00,
2013-06-17 14:00:00,73.6,71.8,29.81,West,270,0.0,4.0,94,0.10,,SKC,0.82,VWS V14.01,2013-06-17 19:00:00,
2013-06-17 14:10:00,75.1,72.0,29.81,West,270,0.0,1.0,90,0.08,,SKC,0.82,VWS V14.01,2013-06-17 19:10:00,
2013-06-17 14:20:00,76.6,72.1,29.80,West,270,0.0,1.0,86,0.01,,SKC,0.82,VWS V14.01,2013-06-17 19:20:00,
2013-06-17 14:30:00,78.1,73.2,29.80,West,270,0.0,5.0,85,0.00,,SKC,0.82,VWS V14.01,2013-06-17 19:30:00,
2013-06-17 14:40:00,79.0,72.7,29.80,West,270,0.0,1.0,81,0.00,,SKC,0.82,VWS V14.01,2013-06-17 19:40:00,
2013-06-17 14:50:00,79.9,74.3,29.80,West,270,0.0,1.0,83,0.00,,SKC,0.82,VWS V14.01,2013-06-17 19:50:00,
2013-06-17 15:00:00,80.4,72.5,29.80,West,270,0.0,4.0,77,0.00,,SKC,0.82,VWS V14.01,2013-06-17 20:00:00,
2013-06-17 15:10:00,80.9,73.0,29.80,West,270,0.0,1.0,77,0.00,,SKC,0.82,VWS V14.01,2013-06-17 20:10:00,
2013-06-17 15:20:00,81.1,72.4,29.80,West,270,0.0,3.0,75,0.00,,SKC,0.82,VWS V14.01,2013-06-17 20:20:00,
2013-06-17 15:30:00,81.4,73.5,29.79,WSW,248,0.0,1.0,77,0.00,,SKC,0.82,VWS V14.01,2013-06-17 20:30:00,
2013-06-17 15:40:00,81.6,72.5,29.79,WSW,248,1.0,5.0,74,0.00,,SKC,0.82,VWS V14.01,2013-06-17 20:40:00,
2013-06-17 15:50:00,81.9,73.2,29.79,South,180,1.0,5.0,75,0.00,,SKC,0.82,VWS V14.01,2013-06-17 20:50:00,
2013-06-17 16:00:00,81.7,74.6,29.79,South,180,0.0,1.0,79,0.00,,SKC,0.82,VWS V14.01,2013-06-17 21:00:00,
2013-06-17 16:10:00,82.0,73.3,29.78,SSE,158,0.0,3.0,75,0.00,,SKC,0.82,VWS V14.01,2013-06-17 21:10:00,
2013-06-17 16:20:00,82.1,73.4,29.79,SSE,158,0.0,3.0,75,0.00,,SKC,0.82,VWS V14.01,2013-06-17 21:20:00,
2013-06-17 16:30:00,81.7,73.4,29.79,SSE,158,0.0,1.0,76,0.00,,SKC,0.82,VWS V14.01,2013-06-17 21:30:00,
2013-06-17 16:40:00,81.5,73.6,29.78,SSE,158,0.0,0.0,77,0.00,,SKC,0.82,VWS V14.01,2013-06-17 21:40:00,
2013-06-17 17:00:00,82.6,73.9,29.78,SSE,158,0.0,5.0,75,0.00,,SKC,0.82,VWS V14.01,2013-06-17 22:00:00,
2013-06-17 17:10:00,82.8,73.7,29.78,SSE,158,0.0,5.0,74,0.00,,SKC,0.82,VWS V14.01,2013-06-17 22:10:00,
2013-06-17 17:20:00,83.2,74.5,29.78,SSE,158,0.0,1.0,75,0.00,,SKC,0.82,VWS V14.01,2013-06-17 22:20:00,
2013-06-17 17:30:00,83.2,71.6,29.78,SSE,158,0.0,5.0,68,0.00,,SKC,0.82,VWS V14.01,2013-06-17 22:30:00,
2013-06-17 17:40:00,83.4,71.7,29.77,SSE,158,0.0,1.0,68,0.00,,SKC,0.82,VWS V14.01,2013-06-17 22:40:00,
2013-06-17 17:50:00,83.6,72.4,29.77,SE,135,0.0,1.0,69,0.00,,SKC,0.82,VWS V14.01,2013-06-17 22:50:00,
2013-06-17 18:00:00,83.9,73.1,29.77,SE,135,0.0,1.0,70,0.00,,SKC,0.82,VWS V14.01,2013-06-17 23:00:00,
2013-06-17 18:10:00,84.0,74.0,29.77,SE,135,0.0,2.0,72,0.00,,SKC,0.82,VWS V14.01,2013-06-17 23:10:00,
2013-06-17 18:20:00,83.9,71.8,29.76,SE,135,0.0,1.0,67,0.00,,SKC,0.82,VWS V14.01,2013-06-17 23:20:00,
2013-06-17 18:30:00,83.8,72.1,29.77,SE,135,0.0,1.0,68,0.00,,SKC,0.82,VWS V14.01,2013-06-17 23:30:00,
2013-06-17 18:40:00,83.5,71.8,29.76,SE,135,0.0,1.0,68,0.00,,SKC,0.82,VWS V14.01,2013-06-17 23:40:00,
2013-06-17 18:50:00,83.2,72.4,29.76,SE,135,0.0,0.0,70,0.00,,SKC,0.82,VWS V14.01,2013-06-17 23:50:00,
2013-06-17 19:00:00,83.2,72.0,29.76,SE,135,0.0,1.0,69,0.00,,SKC,0.82,VWS V14.01,2013-06-18 00:00:00,
2013-06-17 19:10:00,83.4,72.6,29.76,SE,135,0.0,0.0,70,0.00,,SKC,0.82,VWS V14.01,2013-06-18 00:10:00,
2013-06-17 19:20:00,83.6,72.4,29.76,SE,135,0.0,0.0,69,0.00,,SKC,0.82,VWS V14.01,2013-06-18 00:20:00,
2013-06-17 19:30:00,83.6,71.5,29.76,SE,135,0.0,0.0,67,0.00,,SKC,0.82,VWS V14.01,2013-06-18 00:30:00,
2013-06-17 19:40:00,83.2,71.1,29.76,SE,135,0.0,0.0,67,0.00,,SKC,0.82,VWS V14.01,2013-06-18 00:40:00,
2013-06-17 19:50:00,83.0,72.2,29.76,SE,135,0.0,0.0,70,0.00,,SKC,0.82,VWS V14.01,2013-06-18 00:50:00,
2013-06-17 20:00:00,82.7,72.8,29.76,SE,135,0.0,0.0,72,0.00,,SKC,0.82,VWS V14.01,2013-06-18 01:00:00,
2013-06-17 20:10:00,82.2,72.7,29.76,SE,135,0.0,0.0,73,0.00,,SKC,0.82,VWS V14.01,2013-06-18 01:10:00,
2013-06-17 20:20:00,81.6,72.9,29.76,SE,135,0.0,0.0,75,0.00,,SKC,0.82,VWS V14.01,2013-06-18 01:20:00,
2013-06-17 20:30:00,81.1,72.4,29.76,SE,135,0.0,0.0,75,0.00,,SKC,0.82,VWS V14.01,2013-06-18 01:30:00,
2013-06-17 20:40:00,80.3,71.7,29.77,SE,135,0.0,0.0,75,0.00,,SKC,0.82,VWS V14.01,2013-06-18 01:40:00,
2013-06-17 20:50:00,79.6,71.4,29.77,SE,135,0.0,0.0,76,0.00,,SKC,0.82,VWS V14.01,2013-06-18 01:50:00,
2013-06-17 21:00:00,78.9,70.7,29.77,SE,135,0.0,0.0,76,0.00,,SKC,0.82,VWS V14.01,2013-06-18 02:00:00,
2013-06-17 21:10:00,78.3,70.1,29.77,SE,135,0.0,0.0,76,0.00,,SKC,0.82,VWS V14.01,2013-06-18 02:10:00,
2013-06-17 21:20:00,77.4,70.8,29.77,SE,135,0.0,0.0,80,0.00,,SKC,0.82,VWS V14.01,2013-06-18 02:20:00,
2013-06-17 21:30:00,76.6,70.3,29.78,SE,135,0.0,0.0,81,0.00,,SKC,0.82,VWS V14.01,2013-06-18 02:30:00,
2013-06-17 21:40:00,75.7,70.2,29.78,SE,135,0.0,0.0,83,0.00,,SKC,0.82,VWS V14.01,2013-06-18 02:40:00,
2013-06-17 21:50:00,74.8,69.7,29.79,SE,135,0.0,0.0,84,0.00,,SKC,0.82,VWS V14.01,2013-06-18 02:50:00,
2013-06-17 22:00:00,74.0,69.2,29.80,SE,135,0.0,0.0,85,0.00,,SKC,0.82,VWS V14.01,2013-06-18 03:00:00,
2013-06-17 22:10:00,73.4,69.0,29.80,SE,135,0.0,0.0,86,0.00,,SKC,0.82,VWS V14.01,2013-06-18 03:10:00,
2013-06-17 22:20:00,72.9,68.8,29.80,SE,135,0.0,0.0,87,0.00,,SKC,0.82,VWS V14.01,2013-06-18 03:20:00,
2013-06-17 22:30:00,72.2,68.4,29.80,SE,135,0.0,0.0,88,0.00,,SKC,0.82,VWS V14.01,2013-06-18 03:30:00,
2013-06-17 22:40:00,71.7,68.3,29.80,SE,135,0.0,0.0,89,0.00,,SKC,0.82,VWS V14.01,2013-06-18 03:40:00,
2013-06-17 22:50:00,71.3,68.2,29.80,SE,135,0.0,0.0,90,0.00,,SKC,0.82,VWS V14.01,2013-06-18 03:50:00,
2013-06-17 23:00:00,71.1,68.0,29.81,SE,135,0.0,0.0,90,0.00,,SKC,0.82,VWS V14.01,2013-06-18 04:00:00,
2013-06-17 23:10:00,70.8,67.7,29.80,SE,135,0.0,0.0,90,0.00,,SKC,0.82,VWS V14.01,2013-06-18 04:10:00,
2013-06-17 23:20:00,70.5,67.8,29.81,SE,135,0.0,0.0,91,0.00,,SKC,0.82,VWS V14.01,2013-06-18 04:20:00,
2013-06-17 23:30:00,70.3,67.2,29.82,SE,135,0.0,0.0,90,0.00,,SKC,0.82,VWS V14.01,2013-06-18 04:30:00,
2013-06-17 23:40:00,70.1,67.0,29.81,SE,135,0.0,0.0,90,0.00,,SKC,0.82,VWS V14.01,2013-06-18 04:40:00,
2013-06-17 23:50:00,69.7,67.0,29.81,SE,135,0.0,0.0,91,0.00,,SKC,0.82,VWS V14.01,2013-06-18 04:50:00,